Time;durP1;ratioP1;P1;durP2;ratioP2;P2;SDS_P1;SDS_P2;PMS_P1;PMS_P2;Temp;Humidity;BMP_temperature;BMP_pressure;BME280_temperature;BME280_humidity;BME280_pressure;Samples;Min_cycle;Max_cycle;Signal;HPM_P1;HPM_P2
2023/12/18 00:02:00;;;;;;;11.40;2.33;;;10.00;99.90;;;;;;5057646;28;20414;-60
2023/12/18 00:04:27;;;;;;;10.07;2.40;;;9.90;99.90;;;;;;5057385;28;20041;-59
2023/12/18 00:06:53;;;;;;;12.10;2.22;;;9.90;99.90;;;;;;5056994;28;20524;-61
2023/12/18 00:09:20;;;;;;;11.15;1.85;;;9.90;99.90;;;;;;5055619;28;20061;-61
2023/12/18 00:11:47;;;;;;;14.68;2.40;;;9.90;99.90;;;;;;5056754;28;20037;-61
2023/12/18 00:14:14;;;;;;;9.77;2.30;;;9.90;99.90;;;;;;5056692;28;20044;-61
2023/12/18 00:16:41;;;;;;;11.05;2.45;;;9.90;99.90;;;;;;5055580;28;20455;-61
2023/12/18 00:19:08;;;;;;;9.00;1.83;;;9.90;99.90;;;;;;5056602;28;20049;-61
2023/12/18 00:21:35;;;;;;;10.05;2.05;;;9.90;99.90;;;;;;5056883;28;20367;-61
2023/12/18 00:24:02;;;;;;;12.77;2.17;;;9.90;99.90;;;;;;5057211;28;20112;-61
2023/12/18 00:26:29;;;;;;;9.82;1.75;;;9.90;99.90;;;;;;5056360;28;20044;-61
2023/12/18 00:28:56;;;;;;;15.32;2.22;;;9.90;99.90;;;;;;5056771;28;20053;-61
2023/12/18 00:31:22;;;;;;;8.73;2.28;;;9.90;99.90;;;;;;5056410;28;20041;-61
2023/12/18 00:33:49;;;;;;;13.98;2.42;;;9.90;99.90;;;;;;5056687;28;20041;-62
2023/12/18 00:36:16;;;;;;;8.43;2.65;;;9.90;99.90;;;;;;5055878;28;20052;-61
2023/12/18 00:38:43;;;;;;;11.68;2.38;;;9.90;99.90;;;;;;5055177;28;20545;-61
2023/12/18 00:41:10;;;;;;;12.25;2.33;;;9.90;99.90;;;;;;5056229;28;20033;-61
2023/12/18 00:43:37;;;;;;;14.68;1.90;;;9.90;99.90;;;;;;5056553;28;20493;-61
2023/12/18 00:46:05;;;;;;;11.02;2.20;;;9.90;99.90;;;;;;5056185;28;20044;-62
2023/12/18 00:48:32;;;;;;;10.65;2.13;;;10.00;99.90;;;;;;5056453;28;20047;-62
2023/12/18 00:50:59;;;;;;;12.70;2.30;;;9.90;99.90;;;;;;5056224;28;20037;-61
2023/12/18 00:53:25;;;;;;;14.50;2.25;;;9.90;99.90;;;;;;5056301;28;20119;-61
2023/12/18 00:55:52;;;;;;;9.63;2.30;;;9.90;99.90;;;;;;5055823;28;20056;-61
2023/12/18 00:58:19;;;;;;;10.02;1.83;;;9.90;99.90;;;;;;5055853;28;20084;-61
2023/12/18 01:00:46;;;;;;;11.98;2.10;;;10.00;99.90;;;;;;5056248;28;20509;-61
2023/12/18 01:03:13;;;;;;;13.90;2.55;;;9.90;99.90;;;;;;5054725;28;20482;-61
2023/12/18 01:05:40;;;;;;;10.93;2.03;;;9.90;99.90;;;;;;5054490;28;20038;-61
2023/12/18 01:08:07;;;;;;;8.82;2.00;;;9.90;99.90;;;;;;5055643;28;20045;-62
2023/12/18 01:10:33;;;;;;;10.77;2.05;;;9.90;99.90;;;;;;5056277;28;20037;-62
2023/12/18 01:13:00;;;;;;;9.82;2.10;;;9.90;99.90;;;;;;5055848;28;20072;-62
2023/12/18 01:15:27;;;;;;;15.05;2.05;;;9.80;99.90;;;;;;5054392;28;20091;-62
2023/12/18 01:17:54;;;;;;;10.13;2.38;;;9.80;99.90;;;;;;5054593;28;20509;-61
2023/12/18 01:20:21;;;;;;;17.45;3.17;;;9.80;99.90;;;;;;5055579;28;20061;-61
2023/12/18 01:22:47;;;;;;;14.23;2.55;;;9.80;99.90;;;;;;5055806;28;20072;-61
2023/12/18 01:25:29;;;;;;;11.80;2.20;;;9.70;99.90;;;;;;5055451;28;20044;-61
2023/12/18 01:27:56;;;;;;;8.60;1.83;;;9.70;99.90;;;;;;5055461;28;20044;-61
2023/12/18 01:30:23;;;;;;;10.55;2.00;;;9.70;99.90;;;;;;5055337;28;20045;-62
2023/12/18 01:32:50;;;;;;;9.10;1.90;;;9.60;99.90;;;;;;5055334;28;20099;-61
2023/12/18 01:35:17;;;;;;;13.75;2.45;;;9.60;99.90;;;;;;5055504;28;20041;-61
2023/12/18 01:37:44;;;;;;;11.32;2.28;;;9.60;99.90;;;;;;5055259;28;20494;-61
2023/12/18 01:40:10;;;;;;;10.30;1.90;;;9.50;99.90;;;;;;5055110;28;20069;-61
2023/12/18 01:42:39;;;;;;;12.43;2.33;;;9.50;99.90;;;;;;5055073;28;20478;-61
2023/12/18 01:45:06;;;;;;;8.75;2.15;;;9.50;99.90;;;;;;5055159;28;20119;-61
2023/12/18 01:47:33;;;;;;;12.15;2.10;;;9.40;99.90;;;;;;5055007;28;20051;-61
2023/12/18 01:49:59;;;;;;;11.90;2.10;;;9.40;99.90;;;;;;5055092;28;20082;-61
2023/12/18 01:52:26;;;;;;;10.35;2.63;;;9.40;99.90;;;;;;5055340;28;20040;-61
2023/12/18 01:54:53;;;;;;;10.82;2.17;;;9.40;99.90;;;;;;5055011;28;20033;-61
2023/12/18 01:57:20;;;;;;;14.13;2.60;;;9.30;99.90;;;;;;5055046;28;20517;-61
2023/12/18 01:59:47;;;;;;;12.40;2.03;;;9.30;99.90;;;;;;5053517;28;20053;-60
2023/12/18 02:02:13;;;;;;;10.82;2.20;;;9.30;99.90;;;;;;5054910;28;20444;-61
2023/12/18 02:04:40;;;;;;;11.75;2.00;;;9.30;99.90;;;;;;5053818;28;20056;-61
2023/12/18 02:07:07;;;;;;;10.50;1.95;;;9.30;99.90;;;;;;5054704;28;20048;-61
2023/12/18 02:09:34;;;;;;;13.77;2.28;;;9.30;99.90;;;;;;5054655;28;20083;-61
2023/12/18 02:12:01;;;;;;;12.18;2.25;;;9.30;99.90;;;;;;5054154;28;20033;-62
2023/12/18 02:14:28;;;;;;;13.38;2.05;;;9.20;99.90;;;;;;5054908;28;20139;-61
2023/12/18 02:16:55;;;;;;;8.88;1.95;;;9.30;99.90;;;;;;5054889;28;20041;-61
2023/12/18 02:19:22;;;;;;;13.20;2.22;;;9.20;99.90;;;;;;5053986;28;20041;-62
2023/12/18 02:21:49;;;;;;;9.75;1.70;;;9.20;99.90;;;;;;5054416;28;20051;-62
2023/12/18 02:24:15;;;;;;;12.77;2.30;;;9.30;99.90;;;;;;5054192;28;20048;-61
2023/12/18 02:26:42;;;;;;;8.18;1.75;;;9.20;99.90;;;;;;5054159;28;20431;-62
2023/12/18 02:29:09;;;;;;;14.05;2.50;;;9.20;99.90;;;;;;5054322;28;20087;-61
2023/12/18 02:31:36;;;;;;;13.30;1.98;;;9.30;99.90;;;;;;5054404;28;20099;-60
2023/12/18 02:34:03;;;;;;;10.38;2.20;;;9.30;99.90;;;;;;5054473;28;20033;-61
2023/12/18 02:36:30;;;;;;;12.15;2.20;;;9.30;99.90;;;;;;5053671;28;20052;-60
2023/12/18 02:38:57;;;;;;;12.05;2.40;;;9.30;99.90;;;;;;5054109;28;20041;-60
2023/12/18 02:41:23;;;;;;;11.65;2.13;;;9.30;99.90;;;;;;5054411;28;20044;-60
2023/12/18 02:43:50;;;;;;;10.35;2.15;;;9.40;99.90;;;;;;5053837;28;20051;-59
2023/12/18 02:46:17;;;;;;;9.65;1.90;;;9.30;99.90;;;;;;5053759;28;20033;-60
2023/12/18 02:48:44;;;;;;;9.50;1.73;;;9.20;99.90;;;;;;5054184;28;20072;-60
2023/12/18 02:51:11;;;;;;;9.45;1.83;;;9.20;99.90;;;;;;5054069;28;20107;-60
2023/12/18 02:53:37;;;;;;;10.65;2.03;;;9.20;99.90;;;;;;5054099;28;20044;-61
2023/12/18 02:56:04;;;;;;;14.15;2.13;;;9.20;99.90;;;;;;5054275;28;20044;-61
2023/12/18 02:58:31;;;;;;;9.18;1.95;;;9.20;99.90;;;;;;5053858;28;20045;-61
2023/12/18 03:00:58;;;;;;;8.63;2.05;;;9.10;99.90;;;;;;5053710;28;20048;-61
2023/12/18 03:03:25;;;;;;;10.40;2.72;;;9.20;99.90;;;;;;5053817;28;20103;-62
2023/12/18 03:05:52;;;;;;;8.52;1.90;;;9.20;99.90;;;;;;5053676;28;20037;-61
2023/12/18 03:08:19;;;;;;;10.00;1.90;;;9.20;99.90;;;;;;5052756;28;20386;-62
2023/12/18 03:10:46;;;;;;;9.48;1.88;;;9.20;99.90;;;;;;5053994;28;20076;-62
2023/12/18 03:13:13;;;;;;;8.05;1.55;;;9.30;99.90;;;;;;5053719;28;20470;-62
2023/12/18 03:15:40;;;;;;;10.90;1.58;;;9.30;99.90;;;;;;5053484;28;20390;-63
2023/12/18 03:18:06;;;;;;;9.60;1.60;;;9.30;99.90;;;;;;5053746;28;20127;-62
2023/12/18 03:20:33;;;;;;;9.63;2.28;;;9.40;99.90;;;;;;5052267;28;20064;-62
2023/12/18 03:23:00;;;;;;;7.70;1.95;;;9.40;99.90;;;;;;5053538;28;20045;-62
2023/12/18 03:25:27;;;;;;;12.45;2.83;;;9.40;99.90;;;;;;5053842;28;20045;-62
2023/12/18 03:27:54;;;;;;;11.35;1.75;;;9.40;99.90;;;;;;5053313;28;20111;-61
2023/12/18 03:30:21;;;;;;;7.60;1.70;;;9.40;99.90;;;;;;5052290;28;20041;-61
2023/12/18 03:32:48;;;;;;;14.75;1.88;;;9.40;99.90;;;;;;5057461;28;20536;-61
2023/12/18 03:35:15;;;;;;;8.27;1.80;;;9.40;99.90;;;;;;5057407;28;20041;-61
2023/12/18 03:37:42;;;;;;;13.25;2.03;;;9.40;99.90;;;;;;5057508;28;20449;-61
2023/12/18 03:40:09;;;;;;;9.48;2.08;;;9.40;99.90;;;;;;5057731;28;20044;-61
2023/12/18 03:42:36;;;;;;;10.63;2.08;;;9.40;99.90;;;;;;5057723;28;20122;-62
2023/12/18 03:45:03;;;;;;;13.27;2.35;;;9.40;99.90;;;;;;5057537;28;20044;-62
2023/12/18 03:47:30;;;;;;;15.35;2.40;;;9.40;99.90;;;;;;5057425;28;20052;-62
2023/12/18 03:49:57;;;;;;;12.60;2.15;;;9.40;99.90;;;;;;5056432;28;20128;-62
2023/12/18 03:52:23;;;;;;;6.60;1.63;;;9.30;99.90;;;;;;5057517;28;20064;-62
2023/12/18 03:54:50;;;;;;;11.00;1.98;;;9.40;99.90;;;;;;5056915;28;20048;-62
2023/12/18 03:57:17;;;;;;;14.32;3.03;;;9.30;99.90;;;;;;5057146;28;20359;-62
2023/12/18 03:59:44;;;;;;;8.90;1.83;;;9.30;99.90;;;;;;5057204;28;20044;-62
2023/12/18 04:02:10;;;;;;;10.00;1.77;;;9.30;99.90;;;;;;5056939;28;20498;-61
2023/12/18 04:04:37;;;;;;;9.23;2.38;;;9.30;99.90;;;;;;5057442;28;20462;-62
2023/12/18 04:07:04;;;;;;;8.23;1.75;;;9.30;99.90;;;;;;5056556;28;20041;-61
2023/12/18 04:09:31;;;;;;;10.27;1.88;;;9.40;99.90;;;;;;5056938;28;20123;-62
2023/12/18 04:11:58;;;;;;;7.32;1.70;;;9.40;99.90;;;;;;5057045;28;20048;-62
2023/12/18 04:14:24;;;;;;;10.20;2.03;;;9.40;99.90;;;;;;5057168;28;20045;-62
2023/12/18 04:16:51;;;;;;;8.70;1.75;;;9.50;99.90;;;;;;5056622;28;20128;-62
2023/12/18 04:19:18;;;;;;;13.68;2.28;;;9.40;99.90;;;;;;5055288;28;20056;-62
2023/12/18 04:21:45;;;;;;;8.57;1.80;;;9.50;99.90;;;;;;5055282;28;20055;-62
2023/12/18 04:24:12;;;;;;;9.50;2.03;;;9.50;99.90;;;;;;5056959;28;20037;-62
2023/12/18 04:26:39;;;;;;;12.32;2.38;;;9.50;99.90;;;;;;5056296;28;20048;-62
2023/12/18 04:29:05;;;;;;;10.95;2.08;;;9.50;99.90;;;;;;5056489;28;20540;-62
2023/12/18 04:31:32;;;;;;;11.10;1.88;;;9.50;99.90;;;;;;5056563;28;20054;-61
2023/12/18 04:33:59;;;;;;;12.18;1.70;;;9.50;99.90;;;;;;5056326;28;20060;-61
2023/12/18 04:36:26;;;;;;;9.65;1.75;;;9.50;99.90;;;;;;5056162;28;20064;-62
2023/12/18 04:38:53;;;;;;;8.23;1.70;;;9.50;99.90;;;;;;5056479;28;20127;-62
2023/12/18 04:41:20;;;;;;;9.00;1.77;;;9.50;99.90;;;;;;5056210;28;20095;-62
2023/12/18 04:43:47;;;;;;;8.82;1.63;;;9.50;99.90;;;;;;5056439;28;20044;-61
2023/12/18 04:46:14;;;;;;;7.28;2.03;;;9.50;99.90;;;;;;5055091;28;20041;-61
2023/12/18 04:48:41;;;;;;;8.35;2.15;;;9.50;99.90;;;;;;5056620;28;20114;-62
2023/12/18 04:51:09;;;;;;;9.88;1.80;;;9.50;99.90;;;;;;5056379;28;20116;-62
2023/12/18 04:53:35;;;;;;;13.38;2.00;;;9.50;99.90;;;;;;5056408;28;20086;-61
2023/12/18 04:56:02;;;;;;;8.45;1.75;;;9.50;99.90;;;;;;5055884;28;20037;-61
2023/12/18 04:58:30;;;;;;;7.22;1.60;;;9.50;99.90;;;;;;5055842;28;20041;-62
2023/12/18 05:00:57;;;;;;;10.52;2.63;;;9.50;99.90;;;;;;5056219;28;20048;-62
2023/12/18 05:03:24;;;;;;;11.82;1.80;;;9.50;99.90;;;;;;5056303;28;20045;-62
2023/12/18 05:05:51;;;;;;;11.98;1.98;;;9.50;99.90;;;;;;5055570;28;20037;-62
2023/12/18 05:08:18;;;;;;;8.73;1.80;;;9.50;99.90;;;;;;5055726;28;20041;-62
2023/12/18 05:10:45;;;;;;;10.60;1.80;;;9.50;99.90;;;;;;5055638;28;20475;-62
2023/12/18 05:13:12;;;;;;;12.27;2.20;;;9.50;99.90;;;;;;5055782;28;20052;-62
2023/12/18 05:15:38;;;;;;;7.55;2.08;;;9.50;99.90;;;;;;5054398;28;20037;-62
2023/12/18 05:18:05;;;;;;;8.15;1.52;;;9.40;99.90;;;;;;5055996;28;20478;-62
2023/12/18 05:20:32;;;;;;;9.85;1.80;;;9.40;99.90;;;;;;5055351;28;20052;-62
2023/12/18 05:22:59;;;;;;;10.15;2.00;;;9.40;99.90;;;;;;5055767;28;20041;-62
2023/12/18 05:25:25;;;;;;;10.00;1.73;;;9.50;99.90;;;;;;5055636;28;20127;-62
2023/12/18 05:27:52;;;;;;;8.65;2.08;;;9.50;99.90;;;;;;5055337;28;20041;-61
2023/12/18 05:30:19;;;;;;;9.02;1.58;;;9.50;99.90;;;;;;5055245;28;20082;-62
2023/12/18 05:32:46;;;;;;;8.85;1.63;;;9.50;99.90;;;;;;5055358;28;20047;-61
2023/12/18 05:35:13;;;;;;;10.48;1.70;;;9.50;99.90;;;;;;5055357;28;20075;-62
2023/12/18 05:37:40;;;;;;;9.02;1.98;;;9.50;99.90;;;;;;5055123;28;20061;-61
2023/12/18 05:40:07;;;;;;;8.82;1.73;;;9.50;99.90;;;;;;5054991;28;20486;-62
2023/12/18 05:42:33;;;;;;;9.20;2.05;;;9.50;99.90;;;;;;5055252;28;20041;-61
2023/12/18 05:45:00;;;;;;;8.95;2.40;;;9.50;99.90;;;;;;5053754;28;20406;-62
2023/12/18 05:47:27;;;;;;;9.98;1.90;;;9.50;99.90;;;;;;5055015;28;20040;-62
2023/12/18 05:49:54;;;;;;;12.25;1.92;;;9.40;99.90;;;;;;5054720;28;20128;-62
2023/12/18 05:52:21;;;;;;;11.70;2.10;;;9.40;99.90;;;;;;5054746;28;20047;-62
2023/12/18 05:54:48;;;;;;;10.35;2.40;;;9.50;99.90;;;;;;5054637;28;20539;-62
2023/12/18 05:57:16;;;;;;;11.13;1.75;;;9.40;99.90;;;;;;5054784;28;20044;-62
2023/12/18 05:59:44;;;;;;;9.25;2.13;;;9.40;99.90;;;;;;5055012;28;20410;-61
2023/12/18 06:02:11;;;;;;;12.05;2.47;;;9.40;99.90;;;;;;5054708;28;20048;-62
2023/12/18 06:04:41;;;;;;;9.75;1.98;;;9.50;99.90;;;;;;5055096;28;20041;-62
2023/12/18 06:07:08;;;;;;;9.02;1.73;;;9.50;99.90;;;;;;5054915;28;20037;-62
2023/12/18 06:09:35;;;;;;;12.38;1.92;;;9.50;99.90;;;;;;5054452;28;20393;-62
2023/12/18 06:12:02;;;;;;;9.05;2.13;;;9.50;99.90;;;;;;5055009;28;20409;-61
2023/12/18 06:14:29;;;;;;;9.38;1.65;;;9.50;99.90;;;;;;5054984;28;20056;-62
2023/12/18 06:16:55;;;;;;;8.60;1.95;;;9.50;99.90;;;;;;5054594;28;20045;-61
2023/12/18 06:19:22;;;;;;;8.52;1.88;;;9.60;99.90;;;;;;5054532;28;20429;-62
2023/12/18 06:21:49;;;;;;;8.55;1.48;;;9.60;99.90;;;;;;5054745;28;20045;-62
2023/12/18 06:24:16;;;;;;;8.60;1.70;;;9.50;99.90;;;;;;5054281;28;20037;-62
2023/12/18 06:26:43;;;;;;;9.13;1.83;;;9.60;99.90;;;;;;5054327;28;20047;-62
2023/12/18 06:29:10;;;;;;;9.35;1.77;;;9.60;99.90;;;;;;5054449;28;20051;-62
2023/12/18 06:31:36;;;;;;;9.27;1.65;;;9.60;99.90;;;;;;5054155;28;20041;-62
2023/12/18 06:34:03;;;;;;;8.45;1.70;;;9.60;99.90;;;;;;5054333;28;20037;-62
2023/12/18 06:36:31;;;;;;;9.65;2.58;;;9.70;99.90;;;;;;5054061;28;20049;-62
2023/12/18 06:38:57;;;;;;;7.68;1.67;;;9.70;99.90;;;;;;5054365;28;20056;-63
2023/12/18 06:41:24;;;;;;;9.25;1.83;;;9.70;99.90;;;;;;5054498;28;20037;-62
2023/12/18 06:43:52;;;;;;;5.63;1.45;;;9.70;99.90;;;;;;5053847;28;20102;-62
2023/12/18 06:46:19;;;;;;;8.30;1.85;;;9.70;99.90;;;;;;5053933;28;20131;-62
2023/12/18 06:48:46;;;;;;;7.95;2.10;;;9.80;99.90;;;;;;5053724;28;20029;-61
2023/12/18 06:51:13;;;;;;;8.30;2.17;;;9.80;99.90;;;;;;5054074;28;20128;-63
2023/12/18 06:53:39;;;;;;;8.32;1.73;;;9.80;99.90;;;;;;5054074;28;20037;-62
2023/12/18 06:56:07;;;;;;;8.35;2.00;;;9.80;99.90;;;;;;5054234;28;20041;-62
2023/12/18 06:58:33;;;;;;;8.98;2.00;;;9.80;99.90;;;;;;5053565;28;20037;-62
2023/12/18 07:01:00;;;;;;;8.70;2.05;;;9.80;99.90;;;;;;5053659;28;20055;-62
2023/12/18 07:03:27;;;;;;;8.77;2.13;;;9.80;99.90;;;;;;5053615;28;20052;-62
2023/12/18 07:05:58;;;;;;;10.20;1.98;;;9.80;99.90;;;;;;5053955;28;20040;-61
2023/12/18 07:08:25;;;;;;;18.77;3.22;;;9.70;99.90;;;;;;5053248;28;20433;-61
2023/12/18 07:10:55;;;;;;;7.75;1.95;;;9.70;99.90;;;;;;5054188;28;20079;-61
2023/12/18 07:13:22;;;;;;;11.18;2.75;;;9.70;99.90;;;;;;5053727;28;20075;-61
2023/12/18 07:15:49;;;;;;;12.90;3.90;;;9.70;99.90;;;;;;5052645;28;20049;-61
2023/12/18 07:18:17;;;;;;;9.07;2.50;;;9.70;99.90;;;;;;5053652;28;20178;-61
2023/12/18 07:20:44;;;;;;;9.65;2.03;;;9.70;99.90;;;;;;5053878;28;20530;-61
2023/12/18 07:23:11;;;;;;;10.25;2.22;;;9.70;99.90;;;;;;5053836;28;20046;-62
2023/12/18 07:25:37;;;;;;;10.60;2.00;;;9.70;99.90;;;;;;5052071;28;20421;-61
2023/12/18 07:28:08;;;;;;;10.50;1.95;;;9.70;99.90;;;;;;5053268;28;20037;-61
2023/12/18 07:30:34;;;;;;;17.00;2.95;;;9.70;99.90;;;;;;5053594;28;20045;-61
2023/12/18 07:33:04;;;;;;;11.75;2.25;;;9.70;99.90;;;;;;5052331;28;20037;-61
2023/12/18 07:35:31;;;;;;;6.95;1.98;;;9.70;99.90;;;;;;5053055;28;20037;-61
2023/12/18 07:37:58;;;;;;;10.80;2.35;;;9.80;99.90;;;;;;5053640;28;20048;-61
2023/12/18 07:40:24;;;;;;;8.55;1.98;;;9.80;99.90;;;;;;5053196;28;20083;-61
2023/12/18 07:42:51;;;;;;;13.77;2.40;;;9.80;99.90;;;;;;5053376;28;20417;-61
2023/12/18 07:45:18;;;;;;;11.70;2.08;;;9.90;99.90;;;;;;5053137;28;20049;-61
2023/12/18 07:47:45;;;;;;;10.25;2.20;;;9.90;99.90;;;;;;5052686;28;20041;-61
2023/12/18 07:50:12;;;;;;;13.20;2.33;;;9.90;99.90;;;;;;5052922;28;20041;-61
2023/12/18 07:52:39;;;;;;;14.82;2.20;;;9.90;99.90;;;;;;5053008;28;20041;-61
2023/12/18 07:55:06;;;;;;;9.25;2.00;;;9.90;99.90;;;;;;5053308;28;20103;-61
2023/12/18 07:57:33;;;;;;;10.70;2.80;;;10.00;99.90;;;;;;5053088;28;20047;-61
2023/12/18 08:00:00;;;;;;;9.18;1.80;;;10.00;99.90;;;;;;5053212;28;20446;-61
2023/12/18 08:02:37;;;;;;;8.35;2.33;;;10.00;99.90;;;;;;5053535;28;20127;-61
2023/12/18 08:05:03;;;;;;;9.43;2.10;;;9.90;99.90;;;;;;5053021;28;20045;-61
2023/12/18 08:07:30;;;;;;;10.35;2.17;;;9.90;99.90;;;;;;5052910;28;20128;-61
2023/12/18 08:09:57;;;;;;;11.30;2.10;;;9.90;99.90;;;;;;5052943;28;20116;-61
2023/12/18 08:12:24;;;;;;;13.88;2.00;;;9.80;99.90;;;;;;5053390;28;20445;-61
2023/12/18 08:14:51;;;;;;;8.02;1.90;;;9.70;99.90;;;;;;5053318;28;20051;-61
2023/12/18 08:17:18;;;;;;;15.32;2.58;;;9.70;99.90;;;;;;5055218;28;20045;-61
2023/12/18 08:19:44;;;;;;;7.70;1.58;;;9.70;99.90;;;;;;5057095;28;20068;-61
2023/12/18 08:22:11;;;;;;;11.35;1.80;;;9.70;99.90;;;;;;5056361;28;20124;-61
2023/12/18 08:24:38;;;;;;;14.27;2.35;;;9.70;99.90;;;;;;5056660;28;20047;-61
2023/12/18 08:27:05;;;;;;;9.48;2.10;;;9.70;99.90;;;;;;5056856;28;20437;-61
2023/12/18 08:29:32;;;;;;;10.38;2.00;;;9.70;99.90;;;;;;5056930;28;20041;-61
2023/12/18 08:31:58;;;;;;;12.88;2.90;;;9.70;99.90;;;;;;5056912;28;20041;-61
2023/12/18 08:34:25;;;;;;;13.57;2.20;;;9.70;99.90;;;;;;5056735;28;20481;-61
2023/12/18 08:36:53;;;;;;;9.55;2.08;;;9.70;99.90;;;;;;5065073;28;20102;-60
2023/12/18 08:39:20;;;;;;;12.45;2.30;;;9.70;99.90;;;;;;5076327;28;20050;-61
2023/12/18 08:41:49;;;;;;;14.73;2.10;;;9.80;99.90;;;;;;5076204;28;20040;-61
2023/12/18 08:44:16;;;;;;;12.07;2.50;;;9.80;99.90;;;;;;5076004;28;20076;-60
2023/12/18 08:46:42;;;;;;;10.32;2.17;;;9.80;99.90;;;;;;5076355;28;20044;-61
2023/12/18 08:49:09;;;;;;;12.10;1.83;;;9.80;99.90;;;;;;5075869;28;20032;-61
2023/12/18 08:51:36;;;;;;;6.95;1.63;;;9.90;99.90;;;;;;5076142;28;20135;-61
2023/12/18 08:54:04;;;;;;;9.82;1.77;;;9.90;99.90;;;;;;5076310;28;20036;-61
2023/12/18 08:56:32;;;;;;;9.75;2.00;;;9.90;99.90;;;;;;5076313;28;20045;-60
2023/12/18 08:58:58;;;;;;;7.70;2.25;;;9.90;99.90;;;;;;5075494;28;20041;-61
2023/12/18 09:01:25;;;;;;;13.80;3.40;;;9.90;99.90;;;;;;5075556;28;20048;-61
2023/12/18 09:03:54;;;;;;;8.93;2.20;;;9.90;99.90;;;;;;5075786;28;20494;-61
2023/12/18 09:06:21;;;;;;;9.82;2.13;;;9.90;99.90;;;;;;5075566;28;20047;-61
2023/12/18 09:08:49;;;;;;;11.80;2.17;;;9.90;99.90;;;;;;5075516;28;20387;-61
2023/12/18 09:11:16;;;;;;;10.40;2.13;;;10.00;99.90;;;;;;5075696;28;20032;-61
2023/12/18 09:13:43;;;;;;;15.15;2.15;;;10.00;99.90;;;;;;5074955;28;20040;-61
2023/12/18 09:16:09;;;;;;;13.05;2.50;;;10.00;99.90;;;;;;5075690;28;20041;-60
2023/12/18 09:18:36;;;;;;;6.75;2.25;;;10.00;99.90;;;;;;5075337;28;20394;-62
2023/12/18 09:21:03;;;;;;;13.77;2.72;;;10.00;99.90;;;;;;5074301;28;20094;-62
2023/12/18 09:23:30;;;;;;;13.35;3.05;;;10.10;99.90;;;;;;5075447;28;20426;-62
2023/12/18 09:25:57;;;;;;;11.07;2.80;;;10.10;99.90;;;;;;5075375;28;20086;-63
2023/12/18 09:28:23;;;;;;;14.98;3.08;;;10.10;99.90;;;;;;5074297;28;20374;-62
2023/12/18 09:30:50;;;;;;;12.18;3.60;;;10.10;99.90;;;;;;5075176;28;20037;-62
2023/12/18 09:33:17;;;;;;;13.15;2.85;;;10.10;99.90;;;;;;5075193;28;20550;-62
2023/12/18 09:35:45;;;;;;;12.23;2.60;;;10.10;99.90;;;;;;5075060;28;20080;-62
2023/12/18 09:38:11;;;;;;;13.45;2.42;;;10.10;99.90;;;;;;5075089;28;20060;-62
2023/12/18 09:40:38;;;;;;;14.32;2.75;;;10.10;99.90;;;;;;5075053;28;20524;-63
2023/12/18 09:43:05;;;;;;;11.13;2.63;;;10.20;99.90;;;;;;5075319;28;20044;-63
2023/12/18 09:45:32;;;;;;;11.48;2.20;;;10.20;99.90;;;;;;5074856;28;20074;-63
2023/12/18 09:47:59;;;;;;;12.50;2.35;;;10.20;99.90;;;;;;5075040;28;20037;-63
2023/12/18 09:50:27;;;;;;;9.48;2.65;;;10.20;99.90;;;;;;5074987;28;20047;-62
2023/12/18 09:52:54;;;;;;;11.95;2.47;;;10.20;99.90;;;;;;5074672;28;20047;-62
2023/12/18 09:55:21;;;;;;;10.82;2.72;;;10.20;99.90;;;;;;5075107;28;20390;-62
2023/12/18 09:57:49;;;;;;;10.80;2.60;;;10.20;99.90;;;;;;5074646;28;20068;-62
2023/12/18 10:00:16;;;;;;;8.45;2.40;;;10.20;99.90;;;;;;5074698;28;20040;-61
2023/12/18 10:02:43;;;;;;;11.32;2.65;;;10.30;99.90;;;;;;5074948;28;20052;-61
2023/12/18 10:05:10;;;;;;;7.20;2.03;;;10.30;99.90;;;;;;5074789;28;20409;-61
2023/12/18 10:07:37;;;;;;;18.40;2.63;;;10.40;99.90;;;;;;5074234;28;20466;-60
2023/12/18 10:10:04;;;;;;;14.90;2.67;;;10.40;99.90;;;;;;5074551;28;20043;-59
2023/12/18 10:12:32;;;;;;;12.50;2.88;;;10.50;99.90;;;;;;5074941;28;20033;-59
2023/12/18 10:14:59;;;;;;;16.55;2.65;;;10.50;99.90;;;;;;5074626;28;20060;-59
2023/12/18 10:17:26;;;;;;;10.10;2.15;;;10.60;99.90;;;;;;5074271;28;20063;-59
2023/12/18 10:19:52;;;;;;;10.18;2.67;;;10.60;99.90;;;;;;5074370;28;20044;-60
2023/12/18 10:22:19;;;;;;;14.52;2.80;;;10.60;99.90;;;;;;5074154;28;20051;-59
2023/12/18 10:24:46;;;;;;;12.68;2.58;;;10.70;99.90;;;;;;5072972;28;20033;-60
2023/12/18 10:27:13;;;;;;;12.23;2.10;;;10.70;99.90;;;;;;5074650;28;20412;-60
2023/12/18 10:29:40;;;;;;;10.20;2.08;;;10.70;99.90;;;;;;5074064;28;20479;-60
2023/12/18 10:32:07;;;;;;;10.60;3.10;;;10.70;99.90;;;;;;5072658;28;20036;-60
2023/12/18 10:34:36;;;;;;;7.78;1.77;;;10.80;99.90;;;;;;5074576;28;20342;-60
2023/12/18 10:37:03;;;;;;;8.48;1.70;;;10.80;99.90;;;;;;5072628;28;20072;-60
2023/12/18 10:39:30;;;;;;;9.75;2.30;;;10.80;99.90;;;;;;5073371;28;20036;-61
2023/12/18 10:41:59;;;;;;;10.43;1.88;;;10.90;99.90;;;;;;5072834;28;20481;-60
2023/12/18 10:44:26;;;;;;;8.88;1.92;;;10.90;99.90;;;;;;5074067;28;20040;-60
2023/12/18 10:46:53;;;;;;;12.32;2.47;;;10.90;99.90;;;;;;5074172;28;20048;-60
2023/12/18 10:49:20;;;;;;;11.43;2.50;;;10.90;99.90;;;;;;5055777;28;20075;-60
2023/12/18 10:51:47;;;;;;;12.55;2.28;;;11.00;99.90;;;;;;5074022;28;20064;-61
2023/12/18 10:54:14;;;;;;;9.25;1.83;;;11.00;99.90;;;;;;5072784;28;20036;-61
2023/12/18 10:56:41;;;;;;;10.77;2.20;;;11.00;99.90;;;;;;5045856;28;20044;-61
2023/12/18 10:59:07;;;;;;;9.20;2.17;;;11.00;99.90;;;;;;5034179;28;20060;-61
2023/12/18 11:01:34;;;;;;;11.32;2.30;;;11.10;99.90;;;;;;5052918;28;20045;-60
2023/12/18 11:04:01;;;;;;;11.07;2.10;;;11.10;99.90;;;;;;5052789;28;20106;-61
2023/12/18 11:06:28;;;;;;;18.63;2.38;;;11.10;99.90;;;;;;5052355;28;20068;-61
2023/12/18 11:08:55;;;;;;;10.20;2.97;;;11.10;99.90;;;;;;5039541;28;20387;-59
2023/12/18 11:11:22;;;;;;;9.40;2.40;;;11.10;99.90;;;;;;5033782;28;20076;-60
2023/12/18 11:13:48;;;;;;;13.60;2.35;;;11.10;99.90;;;;;;5033782;28;20037;-60
2023/12/18 11:16:15;;;;;;;11.82;2.30;;;11.10;99.90;;;;;;5033915;28;20042;-60
2023/12/18 11:18:42;;;;;;;9.05;2.10;;;11.10;99.90;;;;;;5033536;28;20046;-60
2023/12/18 11:21:09;;;;;;;15.15;1.90;;;11.20;99.90;;;;;;5036413;28;20120;-61
2023/12/18 11:23:36;;;;;;;9.82;2.30;;;11.10;99.90;;;;;;5041138;28;20124;-61
2023/12/18 11:26:03;;;;;;;10.68;2.53;;;11.20;99.90;;;;;;5051557;28;20084;-60
2023/12/18 11:28:29;;;;;;;10.27;2.70;;;11.10;99.90;;;;;;5052810;28;20041;-60
2023/12/18 11:30:56;;;;;;;16.38;2.85;;;11.10;99.90;;;;;;5052368;28;20040;-60
2023/12/18 11:33:23;;;;;;;15.18;2.65;;;11.10;99.90;;;;;;5052483;28;20041;-60
2023/12/18 11:35:50;;;;;;;9.65;2.33;;;11.10;99.90;;;;;;5052221;28;20063;-60
2023/12/18 11:38:17;;;;;;;9.55;2.50;;;11.10;99.90;;;;;;5051375;28;20045;-60
2023/12/18 11:40:44;;;;;;;9.35;2.20;;;11.20;99.90;;;;;;5051484;28;20049;-60
2023/12/18 11:43:10;;;;;;;9.93;2.00;;;11.20;99.90;;;;;;5052397;28;20047;-60
2023/12/18 11:45:38;;;;;;;10.35;2.33;;;11.30;99.90;;;;;;5052485;28;20052;-60
2023/12/18 11:48:05;;;;;;;12.20;2.42;;;11.30;99.90;;;;;;5052851;28;20051;-60
2023/12/18 11:50:32;;;;;;;10.43;2.35;;;11.40;99.90;;;;;;5046859;28;20495;-60
2023/12/18 11:53:01;;;;;;;11.35;2.28;;;11.50;99.90;;;;;;5036131;28;20513;-60
2023/12/18 11:55:28;;;;;;;11.88;2.25;;;11.50;99.90;;;;;;5037090;28;20042;-61
2023/12/18 11:57:55;;;;;;;11.88;2.53;;;11.50;99.90;;;;;;5037080;28;20070;-60
2023/12/18 12:00:22;;;;;;;10.20;2.17;;;11.50;99.90;;;;;;5042907;28;20128;-60
2023/12/18 12:02:48;;;;;;;14.75;2.50;;;11.50;99.90;;;;;;5054890;28;20128;-62
2023/12/18 12:05:15;;;;;;;10.38;2.40;;;11.50;99.90;;;;;;5056083;28;20033;-61
2023/12/18 12:07:42;;;;;;;17.25;2.42;;;11.60;99.90;;;;;;5056215;28;20087;-61
2023/12/18 12:10:09;;;;;;;12.55;2.28;;;11.60;99.90;;;;;;5055832;28;20037;-61
2023/12/18 12:12:36;;;;;;;10.32;2.15;;;11.70;99.90;;;;;;5056256;28;20037;-60
2023/12/18 12:15:03;;;;;;;10.55;2.15;;;11.70;99.90;;;;;;5055892;28;20219;-60
2023/12/18 12:17:30;;;;;;;9.90;2.35;;;11.70;99.90;;;;;;5056305;28;20044;-60
2023/12/18 12:19:57;;;;;;;7.63;1.80;;;11.80;99.90;;;;;;5056082;28;20122;-61
2023/12/18 12:22:24;;;;;;;16.95;2.33;;;11.80;99.90;;;;;;5056084;28;20052;-62
2023/12/18 12:24:51;;;;;;;11.52;2.05;;;11.90;99.90;;;;;;5055824;28;20485;-62
2023/12/18 12:27:17;;;;;;;10.55;2.10;;;11.80;99.90;;;;;;5055950;28;20040;-62
2023/12/18 12:29:44;;;;;;;13.82;2.10;;;11.90;99.90;;;;;;5055687;28;20041;-61
2023/12/18 12:32:11;;;;;;;7.82;1.70;;;11.90;99.90;;;;;;5038245;28;20073;-60
2023/12/18 12:34:41;;;;;;;8.88;2.47;;;11.90;99.90;;;;;;5036770;28;20091;-60
2023/12/18 12:37:09;;;;;;;12.18;2.38;;;12.00;99.90;;;;;;5054390;28;20429;-60
2023/12/18 12:39:35;;;;;;;10.13;2.20;;;12.00;99.90;;;;;;5055555;28;20051;-60
2023/12/18 12:42:03;;;;;;;13.30;2.03;;;12.00;99.90;;;;;;5054617;28;20124;-60
2023/12/18 12:44:30;;;;;;;9.60;2.10;;;12.00;99.90;;;;;;5055683;28;20041;-60
2023/12/18 12:46:57;;;;;;;11.23;1.88;;;12.00;99.90;;;;;;5054705;28;20048;-60